sensor_id;sensor_type;location;lat;lon;timestamp;P1;durP1;ratioP1;P2;durP2;ratioP2
22768;SDS011;13001;51.968;5.918;2022-08-11T02:10:48;385.17;;;358.10;;
22768;SDS011;13001;51.968;5.918;2022-08-11T02:13:35;353.15;;;330.23;;
22768;SDS011;13001;51.968;5.918;2022-08-11T02:16:07;378.93;;;354.53;;
22768;SDS011;13001;51.968;5.918;2022-08-11T02:18:35;423.47;;;395.40;;
22768;SDS011;13001;51.968;5.918;2022-08-11T02:21:05;431.97;;;403.23;;
22768;SDS011;13001;51.968;5.918;2022-08-11T02:23:57;449.87;;;419.03;;
22768;SDS011;13001;51.968;5.918;2022-08-11T02:26:34;448.77;;;417.93;;
22768;SDS011;13001;51.968;5.918;2022-08-11T02:31:58;454.77;;;423.43;;
22768;SDS011;13001;51.968;5.918;2022-08-11T02:37:15;433.00;;;404.35;;
22768;SDS011;13001;51.968;5.918;2022-08-11T02:39:54;439.13;;;409.97;;
22768;SDS011;13001;51.968;5.918;2022-08-11T02:42:16;436.43;;;407.43;;
22768;SDS011;13001;51.968;5.918;2022-08-11T02:50:16;393.03;;;366.10;;
22768;SDS011;13001;51.968;5.918;2022-08-11T02:55:29;378.87;;;355.00;;
22768;SDS011;13001;51.968;5.918;2022-08-11T03:00:33;369.53;;;346.63;;
22768;SDS011;13001;51.968;5.918;2022-08-11T03:03:06;341.50;;;320.80;;
22768;SDS011;13001;51.968;5.918;2022-08-11T03:05:35;345.80;;;324.67;;
22768;SDS011;13001;51.968;5.918;2022-08-11T03:08:03;339.23;;;318.50;;
22768;SDS011;13001;51.968;5.918;2022-08-11T03:13:07;367.53;;;344.83;;
22768;SDS011;13001;51.968;5.918;2022-08-11T03:18:40;333.40;;;313.20;;
22768;SDS011;13001;51.968;5.918;2022-08-11T03:21:15;350.10;;;328.27;;
22768;SDS011;13001;51.968;5.918;2022-08-11T03:23:47;357.53;;;335.23;;
22768;SDS011;13001;51.968;5.918;2022-08-11T03:26:21;351.97;;;330.17;;
22768;SDS011;13001;51.968;5.918;2022-08-11T03:28:58;346.13;;;324.47;;
22768;SDS011;13001;51.968;5.918;2022-08-11T03:31:25;359.47;;;336.70;;
22768;SDS011;13001;51.968;5.918;2022-08-11T03:34:02;337.70;;;316.63;;
22768;SDS011;13001;51.968;5.918;2022-08-11T03:39:05;343.43;;;321.27;;
22768;SDS011;13001;51.968;5.918;2022-08-11T03:41:32;343.20;;;320.93;;
22768;SDS011;13001;51.968;5.918;2022-08-11T03:52:25;330.73;;;309.03;;
22768;SDS011;13001;51.968;5.918;2022-08-11T03:54:53;318.00;;;296.80;;
22768;SDS011;13001;51.968;5.918;2022-08-11T03:57:26;339.97;;;317.20;;
22768;SDS011;13001;51.968;5.918;2022-08-11T04:10:51;321.07;;;298.80;;
22768;SDS011;13001;51.968;5.918;2022-08-11T04:29:04;300.17;;;278.97;;
22768;SDS011;13001;51.968;5.918;2022-08-11T04:37:00;320.93;;;300.73;;
22768;SDS011;13001;51.968;5.918;2022-08-11T04:42:47;378.58;;;355.40;;
22768;SDS011;13001;51.968;5.918;2022-08-11T04:57:17;389.98;;;362.90;;
22768;SDS011;13001;51.968;5.918;2022-08-11T05:00:04;472.73;;;439.32;;
22768;SDS011;13001;51.968;5.918;2022-08-11T05:02:58;543.58;;;504.87;;
22768;SDS011;13001;51.968;5.918;2022-08-11T05:05:20;612.02;;;567.45;;
22768;SDS011;13001;51.968;5.918;2022-08-11T05:08:02;668.97;;;620.33;;
22768;SDS011;13001;51.968;5.918;2022-08-11T05:10:36;702.02;;;651.58;;
22768;SDS011;13001;51.968;5.918;2022-08-11T05:13:00;691.80;;;642.75;;
22768;SDS011;13001;51.968;5.918;2022-08-11T05:15:33;917.30;;;837.77;;
22768;SDS011;13001;51.968;5.918;2022-08-11T05:18:21;781.70;;;721.67;;
22768;SDS011;13001;51.968;5.918;2022-08-11T05:21:08;751.20;;;695.83;;
22768;SDS011;13001;51.968;5.918;2022-08-11T05:23:55;857.58;;;790.55;;
22768;SDS011;13001;51.968;5.918;2022-08-11T05:26:44;897.27;;;826.10;;
22768;SDS011;13001;51.968;5.918;2022-08-11T05:29:47;913.03;;;838.30;;
22768;SDS011;13001;51.968;5.918;2022-08-11T05:32:33;906.25;;;828.58;;
22768;SDS011;13001;51.968;5.918;2022-08-11T05:35:16;945.97;;;862.25;;
22768;SDS011;13001;51.968;5.918;2022-08-11T05:37:44;993.17;;;905.50;;
22768;SDS011;13001;51.968;5.918;2022-08-11T05:40:30;1006.20;;;918.97;;
22768;SDS011;13001;51.968;5.918;2022-08-11T05:43:16;997.25;;;911.30;;
22768;SDS011;13001;51.968;5.918;2022-08-11T05:46:03;929.55;;;853.17;;
22768;SDS011;13001;51.968;5.918;2022-08-11T05:48:49;840.12;;;775.48;;
22768;SDS011;13001;51.968;5.918;2022-08-11T05:51:38;785.20;;;727.65;;
22768;SDS011;13001;51.968;5.918;2022-08-11T05:54:25;730.25;;;679.65;;
22768;SDS011;13001;51.968;5.918;2022-08-11T05:57:21;669.73;;;626.10;;
22768;SDS011;13001;51.968;5.918;2022-08-11T05:59:56;605.20;;;567.45;;
22768;SDS011;13001;51.968;5.918;2022-08-11T06:02:20;581.40;;;545.52;;
22768;SDS011;13001;51.968;5.918;2022-08-11T06:04:52;547.30;;;513.85;;
22768;SDS011;13001;51.968;5.918;2022-08-11T06:07:16;557.40;;;523.52;;
22768;SDS011;13001;51.968;5.918;2022-08-11T06:12:20;575.40;;;540.98;;
22768;SDS011;13001;51.968;5.918;2022-08-11T06:14:44;552.88;;;519.65;;
22768;SDS011;13001;51.968;5.918;2022-08-11T06:17:11;518.67;;;487.62;;
22768;SDS011;13001;51.968;5.918;2022-08-11T06:19:42;488.60;;;459.73;;
22768;SDS011;13001;51.968;5.918;2022-08-11T06:22:11;485.48;;;456.23;;
22768;SDS011;13001;51.968;5.918;2022-08-11T06:24:39;498.28;;;468.85;;
22768;SDS011;13001;51.968;5.918;2022-08-11T06:27:07;496.12;;;466.88;;
22768;SDS011;13001;51.968;5.918;2022-08-11T06:29:35;477.13;;;449.95;;
22768;SDS011;13001;51.968;5.918;2022-08-11T06:32:04;450.45;;;424.73;;
22768;SDS011;13001;51.968;5.918;2022-08-11T06:34:35;436.28;;;411.50;;
22768;SDS011;13001;51.968;5.918;2022-08-11T06:37:14;418.93;;;395.12;;
22768;SDS011;13001;51.968;5.918;2022-08-11T06:40:04;416.27;;;392.47;;
22768;SDS011;13001;51.968;5.918;2022-08-11T06:42:12;418.45;;;394.70;;
22768;SDS011;13001;51.968;5.918;2022-08-11T06:44:40;419.77;;;395.75;;
22768;SDS011;13001;51.968;5.918;2022-08-11T06:47:12;431.93;;;406.60;;
22768;SDS011;13001;51.968;5.918;2022-08-11T06:49:41;418.93;;;394.50;;
22768;SDS011;13001;51.968;5.918;2022-08-11T06:52:30;420.80;;;395.57;;
22768;SDS011;13001;51.968;5.918;2022-08-11T06:54:59;420.20;;;395.27;;
22768;SDS011;13001;51.968;5.918;2022-08-11T06:57:29;407.62;;;383.10;;
22768;SDS011;13001;51.968;5.918;2022-08-11T07:00:15;423.80;;;398.37;;
22768;SDS011;13001;51.968;5.918;2022-08-11T07:03:11;441.73;;;415.58;;
22768;SDS011;13001;51.968;5.918;2022-08-11T07:11:18;456.57;;;430.50;;
22768;SDS011;13001;51.968;5.918;2022-08-11T07:14:00;443.33;;;418.03;;
22768;SDS011;13001;51.968;5.918;2022-08-11T07:16:49;422.65;;;398.70;;
22768;SDS011;13001;51.968;5.918;2022-08-11T07:19:19;404.35;;;381.60;;
22768;SDS011;13001;51.968;5.918;2022-08-11T07:22:04;342.95;;;324.15;;
22768;SDS011;13001;51.968;5.918;2022-08-11T07:24:53;300.82;;;284.27;;
22768;SDS011;13001;51.968;5.918;2022-08-11T07:27:41;319.25;;;301.32;;
22768;SDS011;13001;51.968;5.918;2022-08-11T07:30:28;312.13;;;295.30;;
22768;SDS011;13001;51.968;5.918;2022-08-11T07:32:57;317.45;;;300.22;;
22768;SDS011;13001;51.968;5.918;2022-08-11T07:35:35;287.80;;;272.35;;
22768;SDS011;13001;51.968;5.918;2022-08-11T07:38:06;255.60;;;241.65;;
22768;SDS011;13001;51.968;5.918;2022-08-11T07:40:34;239.65;;;226.62;;
22768;SDS011;13001;51.968;5.918;2022-08-11T07:43:02;216.88;;;204.95;;
22768;SDS011;13001;51.968;5.918;2022-08-11T07:45:29;176.90;;;166.88;;
22768;SDS011;13001;51.968;5.918;2022-08-11T07:48:15;174.37;;;164.43;;
22768;SDS011;13001;51.968;5.918;2022-08-11T07:51:00;173.55;;;163.72;;
22768;SDS011;13001;51.968;5.918;2022-08-11T07:53:46;147.97;;;139.63;;
22768;SDS011;13001;51.968;5.918;2022-08-11T07:56:14;137.68;;;129.85;;
22768;SDS011;13001;51.968;5.918;2022-08-11T07:58:44;126.18;;;119.05;;
22768;SDS011;13001;51.968;5.918;2022-08-11T08:01:29;127.70;;;120.53;;
22768;SDS011;13001;51.968;5.918;2022-08-11T08:04:15;123.28;;;116.30;;
22768;SDS011;13001;51.968;5.918;2022-08-11T08:07:02;125.30;;;118.20;;
22768;SDS011;13001;51.968;5.918;2022-08-11T08:09:49;98.23;;;92.53;;
22768;SDS011;13001;51.968;5.918;2022-08-11T08:12:37;88.92;;;84.05;;
22768;SDS011;13001;51.968;5.918;2022-08-11T08:15:23;84.25;;;79.55;;
22768;SDS011;13001;51.968;5.918;2022-08-11T08:18:08;79.13;;;74.73;;
22768;SDS011;13001;51.968;5.918;2022-08-11T08:20:39;71.55;;;67.53;;
22768;SDS011;13001;51.968;5.918;2022-08-11T08:23:07;60.80;;;57.35;;
22768;SDS011;13001;51.968;5.918;2022-08-11T08:25:35;62.17;;;58.07;;
22768;SDS011;13001;51.968;5.918;2022-08-11T08:28:08;53.93;;;50.53;;
22768;SDS011;13001;51.968;5.918;2022-08-11T08:30:35;61.47;;;57.90;;
22768;SDS011;13001;51.968;5.918;2022-08-11T08:33:23;49.42;;;46.63;;
22768;SDS011;13001;51.968;5.918;2022-08-11T08:35:52;54.20;;;51.10;;
22768;SDS011;13001;51.968;5.918;2022-08-11T08:38:21;53.10;;;50.00;;
22768;SDS011;13001;51.968;5.918;2022-08-11T08:40:49;54.25;;;51.08;;
22768;SDS011;13001;51.968;5.918;2022-08-11T08:43:18;46.67;;;43.87;;
22768;SDS011;13001;51.968;5.918;2022-08-11T08:45:47;41.23;;;38.92;;
22768;SDS011;13001;51.968;5.918;2022-08-11T08:48:15;42.43;;;39.85;;
22768;SDS011;13001;51.968;5.918;2022-08-11T08:50:50;44.55;;;42.05;;
22768;SDS011;13001;51.968;5.918;2022-08-11T08:53:33;72.40;;;67.93;;
22768;SDS011;13001;51.968;5.918;2022-08-11T08:56:01;64.97;;;61.20;;
22768;SDS011;13001;51.968;5.918;2022-08-11T08:58:28;68.17;;;64.35;;
22768;SDS011;13001;51.968;5.918;2022-08-11T09:00:59;67.75;;;63.90;;
22768;SDS011;13001;51.968;5.918;2022-08-11T09:03:28;57.75;;;54.33;;
22768;SDS011;13001;51.968;5.918;2022-08-11T09:05:59;47.27;;;44.60;;
22768;SDS011;13001;51.968;5.918;2022-08-11T09:08:26;41.13;;;38.88;;
22768;SDS011;13001;51.968;5.918;2022-08-11T09:10:55;37.50;;;35.43;;
22768;SDS011;13001;51.968;5.918;2022-08-11T09:13:42;37.80;;;35.73;;
22768;SDS011;13001;51.968;5.918;2022-08-11T09:16:12;41.87;;;39.27;;
22768;SDS011;13001;51.968;5.918;2022-08-11T09:18:41;49.27;;;46.48;;
22768;SDS011;13001;51.968;5.918;2022-08-11T09:21:12;41.50;;;39.20;;
22768;SDS011;13001;51.968;5.918;2022-08-11T09:23:41;44.45;;;41.55;;
22768;SDS011;13001;51.968;5.918;2022-08-11T09:26:28;44.83;;;42.03;;
22768;SDS011;13001;51.968;5.918;2022-08-11T09:29:14;48.60;;;45.65;;
22768;SDS011;13001;51.968;5.918;2022-08-11T09:31:42;55.30;;;52.20;;
22768;SDS011;13001;51.968;5.918;2022-08-11T09:34:12;56.13;;;53.03;;
22768;SDS011;13001;51.968;5.918;2022-08-11T09:36:42;60.63;;;57.33;;
22768;SDS011;13001;51.968;5.918;2022-08-11T09:39:29;62.78;;;59.38;;
22768;SDS011;13001;51.968;5.918;2022-08-11T09:42:15;50.43;;;47.53;;
22768;SDS011;13001;51.968;5.918;2022-08-11T09:44:46;55.37;;;52.43;;
22768;SDS011;13001;51.968;5.918;2022-08-11T09:47:18;62.08;;;58.65;;
22768;SDS011;13001;51.968;5.918;2022-08-11T09:49:47;70.32;;;66.42;;
22768;SDS011;13001;51.968;5.918;2022-08-11T09:52:18;62.85;;;59.45;;
22768;SDS011;13001;51.968;5.918;2022-08-11T09:54:47;67.40;;;63.48;;
22768;SDS011;13001;51.968;5.918;2022-08-11T09:57:17;71.77;;;67.78;;
22768;SDS011;13001;51.968;5.918;2022-08-11T10:00:09;77.00;;;72.70;;
22768;SDS011;13001;51.968;5.918;2022-08-11T10:02:39;94.67;;;89.47;;
22768;SDS011;13001;51.968;5.918;2022-08-11T10:05:16;92.60;;;87.30;;
22768;SDS011;13001;51.968;5.918;2022-08-11T10:08:01;105.12;;;99.07;;
22768;SDS011;13001;51.968;5.918;2022-08-11T10:10:29;102.70;;;96.78;;
22768;SDS011;13001;51.968;5.918;2022-08-11T10:13:00;165.43;;;155.75;;
22768;SDS011;13001;51.968;5.918;2022-08-11T10:15:28;210.75;;;198.80;;
22768;SDS011;13001;51.968;5.918;2022-08-11T10:18:06;325.30;;;307.20;;
22768;SDS011;13001;51.968;5.918;2022-08-11T10:20:59;439.85;;;413.80;;
22768;SDS011;13001;51.968;5.918;2022-08-11T10:23:29;513.92;;;482.58;;
22768;SDS011;13001;51.968;5.918;2022-08-11T10:26:14;585.25;;;549.58;;
22768;SDS011;13001;51.968;5.918;2022-08-11T10:29:00;586.77;;;551.55;;
22768;SDS011;13001;51.968;5.918;2022-08-11T10:31:28;559.45;;;525.95;;
22768;SDS011;13001;51.968;5.918;2022-08-11T10:34:13;542.80;;;510.52;;
22768;SDS011;13001;51.968;5.918;2022-08-11T10:36:42;561.60;;;527.87;;
22768;SDS011;13001;51.968;5.918;2022-08-11T10:39:19;539.37;;;506.82;;
22768;SDS011;13001;51.968;5.918;2022-08-11T10:41:47;526.85;;;495.32;;
22768;SDS011;13001;51.968;5.918;2022-08-11T10:44:43;507.35;;;477.05;;
22768;SDS011;13001;51.968;5.918;2022-08-11T10:47:03;540.10;;;508.12;;
22768;SDS011;13001;51.968;5.918;2022-08-11T10:49:49;525.05;;;494.30;;
22768;SDS011;13001;51.968;5.918;2022-08-11T10:52:18;517.40;;;487.13;;
22768;SDS011;13001;51.968;5.918;2022-08-11T10:55:04;545.77;;;512.17;;
22768;SDS011;13001;51.968;5.918;2022-08-11T10:57:49;541.50;;;508.68;;
22768;SDS011;13001;51.968;5.918;2022-08-11T11:00:34;555.22;;;521.30;;
22768;SDS011;13001;51.968;5.918;2022-08-11T11:03:01;587.40;;;549.23;;
22768;SDS011;13001;51.968;5.918;2022-08-11T11:05:31;579.33;;;542.03;;
22768;SDS011;13001;51.968;5.918;2022-08-11T11:08:07;593.42;;;555.00;;
22768;SDS011;13001;51.968;5.918;2022-08-11T11:10:32;592.50;;;553.92;;
22768;SDS011;13001;51.968;5.918;2022-08-11T11:12:59;623.73;;;581.67;;
22768;SDS011;13001;51.968;5.918;2022-08-11T11:15:45;689.00;;;638.80;;
22768;SDS011;13001;51.968;5.918;2022-08-11T11:18:35;734.48;;;679.70;;
22768;SDS011;13001;51.968;5.918;2022-08-11T11:21:06;717.42;;;665.05;;
22768;SDS011;13001;51.968;5.918;2022-08-11T11:28:56;664.92;;;618.37;;
22768;SDS011;13001;51.968;5.918;2022-08-11T11:36:33;663.08;;;616.27;;
22768;SDS011;13001;51.968;5.918;2022-08-11T11:38:59;658.53;;;612.48;;
22768;SDS011;13001;51.968;5.918;2022-08-11T11:41:27;672.48;;;624.33;;
22768;SDS011;13001;51.968;5.918;2022-08-11T11:43:55;654.70;;;609.30;;
22768;SDS011;13001;51.968;5.918;2022-08-11T11:46:26;632.60;;;589.10;;
22768;SDS011;13001;51.968;5.918;2022-08-11T11:48:54;625.00;;;583.23;;
22768;SDS011;13001;51.968;5.918;2022-08-11T11:51:22;606.73;;;566.70;;
22768;SDS011;13001;51.968;5.918;2022-08-11T11:53:50;618.30;;;576.73;;
22768;SDS011;13001;51.968;5.918;2022-08-11T11:56:18;624.60;;;583.45;;
22768;SDS011;13001;51.968;5.918;2022-08-11T11:58:45;645.57;;;601.10;;
22768;SDS011;13001;51.968;5.918;2022-08-11T12:01:31;635.65;;;591.83;;
22768;SDS011;13001;51.968;5.918;2022-08-11T12:03:59;627.50;;;584.13;;
22768;SDS011;13001;51.968;5.918;2022-08-11T12:06:29;643.48;;;598.65;;
22768;SDS011;13001;51.968;5.918;2022-08-11T12:08:57;611.80;;;570.80;;
22768;SDS011;13001;51.968;5.918;2022-08-11T12:11:25;599.55;;;560.13;;
22768;SDS011;13001;51.968;5.918;2022-08-11T12:14:11;599.98;;;560.65;;
22768;SDS011;13001;51.968;5.918;2022-08-11T12:16:40;600.90;;;561.10;;
22768;SDS011;13001;51.968;5.918;2022-08-11T12:19:13;611.00;;;570.30;;
22768;SDS011;13001;51.968;5.918;2022-08-11T12:21:41;644.90;;;600.92;;
22768;SDS011;13001;51.968;5.918;2022-08-11T12:24:10;643.75;;;599.23;;
22768;SDS011;13001;51.968;5.918;2022-08-11T12:26:56;646.37;;;600.90;;
22768;SDS011;13001;51.968;5.918;2022-08-11T12:29:43;661.85;;;614.95;;
22768;SDS011;13001;51.968;5.918;2022-08-11T12:32:11;660.35;;;613.83;;
22768;SDS011;13001;51.968;5.918;2022-08-11T12:34:39;625.25;;;582.40;;
22768;SDS011;13001;51.968;5.918;2022-08-11T12:37:06;619.73;;;577.73;;
22768;SDS011;13001;51.968;5.918;2022-08-11T12:39:36;635.00;;;591.03;;
22768;SDS011;13001;51.968;5.918;2022-08-11T12:42:22;571.40;;;534.22;;
22768;SDS011;13001;51.968;5.918;2022-08-11T12:45:09;596.03;;;556.65;;
22768;SDS011;13001;51.968;5.918;2022-08-11T12:50:44;631.60;;;588.30;;
22768;SDS011;13001;51.968;5.918;2022-08-11T12:53:31;630.40;;;587.17;;
22768;SDS011;13001;51.968;5.918;2022-08-11T12:56:02;666.33;;;618.73;;
22768;SDS011;13001;51.968;5.918;2022-08-11T12:58:46;627.28;;;584.37;;
22768;SDS011;13001;51.968;5.918;2022-08-11T13:01:15;665.05;;;617.80;;
22768;SDS011;13001;51.968;5.918;2022-08-11T13:04:00;697.35;;;646.12;;
22768;SDS011;13001;51.968;5.918;2022-08-11T13:06:47;686.47;;;636.47;;
22768;SDS011;13001;51.968;5.918;2022-08-11T13:09:16;653.35;;;607.08;;
22768;SDS011;13001;51.968;5.918;2022-08-11T13:11:44;638.00;;;593.27;;
22768;SDS011;13001;51.968;5.918;2022-08-11T13:14:30;693.70;;;642.77;;
22768;SDS011;13001;51.968;5.918;2022-08-11T13:16:58;789.13;;;729.00;;
22768;SDS011;13001;51.968;5.918;2022-08-11T13:19:44;634.00;;;590.12;;
22768;SDS011;13001;51.968;5.918;2022-08-11T13:22:14;612.30;;;570.50;;
22768;SDS011;13001;51.968;5.918;2022-08-11T13:24:41;651.77;;;605.65;;
22768;SDS011;13001;51.968;5.918;2022-08-11T13:27:09;644.45;;;600.05;;
22768;SDS011;13001;51.968;5.918;2022-08-11T13:29:40;696.80;;;645.60;;
22768;SDS011;13001;51.968;5.918;2022-08-11T13:32:09;696.92;;;646.30;;
22768;SDS011;13001;51.968;5.918;2022-08-11T13:34:36;738.40;;;683.50;;
22768;SDS011;13001;51.968;5.918;2022-08-11T13:37:05;728.10;;;673.88;;
22768;SDS011;13001;51.968;5.918;2022-08-11T13:39:34;757.67;;;700.55;;
22768;SDS011;13001;51.968;5.918;2022-08-11T13:42:02;781.87;;;722.65;;
22768;SDS011;13001;51.968;5.918;2022-08-11T13:44:31;776.02;;;717.17;;
22768;SDS011;13001;51.968;5.918;2022-08-11T13:47:04;747.33;;;691.00;;
22768;SDS011;13001;51.968;5.918;2022-08-11T13:49:34;802.15;;;740.25;;
22768;SDS011;13001;51.968;5.918;2022-08-11T13:52:01;717.63;;;664.25;;
22768;SDS011;13001;51.968;5.918;2022-08-11T13:54:33;685.10;;;634.70;;
22768;SDS011;13001;51.968;5.918;2022-08-11T13:57:02;795.92;;;735.10;;
22768;SDS011;13001;51.968;5.918;2022-08-11T13:59:29;689.55;;;640.28;;
22768;SDS011;13001;51.968;5.918;2022-08-11T14:01:58;751.98;;;695.42;;
22768;SDS011;13001;51.968;5.918;2022-08-11T14:04:41;772.75;;;714.37;;
22768;SDS011;13001;51.968;5.918;2022-08-11T14:07:02;756.97;;;700.25;;
22768;SDS011;13001;51.968;5.918;2022-08-11T14:09:31;743.27;;;688.10;;
22768;SDS011;13001;51.968;5.918;2022-08-11T14:11:59;811.60;;;749.37;;
22768;SDS011;13001;51.968;5.918;2022-08-11T14:14:50;727.10;;;673.20;;
22768;SDS011;13001;51.968;5.918;2022-08-11T14:17:17;752.20;;;695.95;;
22768;SDS011;13001;51.968;5.918;2022-08-11T14:19:46;704.67;;;653.58;;
22768;SDS011;13001;51.968;5.918;2022-08-11T14:22:14;727.33;;;673.78;;
22768;SDS011;13001;51.968;5.918;2022-08-11T14:24:42;728.48;;;675.30;;
22768;SDS011;13001;51.968;5.918;2022-08-11T14:27:12;724.73;;;671.47;;
22768;SDS011;13001;51.968;5.918;2022-08-11T14:29:40;751.95;;;694.67;;
22768;SDS011;13001;51.968;5.918;2022-08-11T14:32:09;660.97;;;614.48;;
22768;SDS011;13001;51.968;5.918;2022-08-11T14:34:39;774.98;;;716.70;;
22768;SDS011;13001;51.968;5.918;2022-08-11T14:37:11;728.40;;;675.20;;
22768;SDS011;13001;51.968;5.918;2022-08-11T14:39:41;828.05;;;765.28;;
22768;SDS011;13001;51.968;5.918;2022-08-11T14:42:05;798.08;;;737.72;;
22768;SDS011;13001;51.968;5.918;2022-08-11T14:44:53;789.27;;;729.67;;
22768;SDS011;13001;51.968;5.918;2022-08-11T14:47:40;743.67;;;688.50;;
22768;SDS011;13001;51.968;5.918;2022-08-11T14:50:08;773.93;;;716.80;;
22768;SDS011;13001;51.968;5.918;2022-08-11T14:52:36;819.25;;;756.27;;
22768;SDS011;13001;51.968;5.918;2022-08-11T14:55:04;769.08;;;711.98;;
22768;SDS011;13001;51.968;5.918;2022-08-11T14:57:50;810.00;;;748.80;;
22768;SDS011;13001;51.968;5.918;2022-08-11T15:00:19;809.57;;;748.30;;
22768;SDS011;13001;51.968;5.918;2022-08-11T15:02:47;712.35;;;659.85;;
22768;SDS011;13001;51.968;5.918;2022-08-11T15:05:35;759.45;;;703.70;;
22768;SDS011;13001;51.968;5.918;2022-08-11T15:08:03;746.57;;;691.50;;
22768;SDS011;13001;51.968;5.918;2022-08-11T15:10:32;722.20;;;670.02;;
22768;SDS011;13001;51.968;5.918;2022-08-11T15:13:02;761.83;;;705.08;;
22768;SDS011;13001;51.968;5.918;2022-08-11T15:15:28;732.33;;;679.33;;
22768;SDS011;13001;51.968;5.918;2022-08-11T15:18:16;747.95;;;692.53;;
22768;SDS011;13001;51.968;5.918;2022-08-11T15:20:44;693.37;;;643.60;;
22768;SDS011;13001;51.968;5.918;2022-08-11T15:23:29;726.90;;;673.97;;
22768;SDS011;13001;51.968;5.918;2022-08-11T15:26:22;747.87;;;693.30;;
22768;SDS011;13001;51.968;5.918;2022-08-11T15:28:54;779.00;;;720.50;;
22768;SDS011;13001;51.968;5.918;2022-08-11T15:31:39;769.42;;;712.42;;
22768;SDS011;13001;51.968;5.918;2022-08-11T15:34:24;776.50;;;718.20;;
22768;SDS011;13001;51.968;5.918;2022-08-11T15:37:12;732.02;;;678.45;;
22768;SDS011;13001;51.968;5.918;2022-08-11T15:39:56;732.30;;;678.17;;
22768;SDS011;13001;51.968;5.918;2022-08-11T15:43:21;827.43;;;764.92;;
22768;SDS011;13001;51.968;5.918;2022-08-11T15:45:28;777.23;;;718.70;;
22768;SDS011;13001;51.968;5.918;2022-08-11T15:48:20;816.63;;;754.93;;
22768;SDS011;13001;51.968;5.918;2022-08-11T15:50:45;728.88;;;675.60;;
22768;SDS011;13001;51.968;5.918;2022-08-11T15:53:15;738.58;;;683.75;;
22768;SDS011;13001;51.968;5.918;2022-08-11T15:55:41;717.65;;;664.92;;
22768;SDS011;13001;51.968;5.918;2022-08-11T15:58:09;741.17;;;687.15;;
22768;SDS011;13001;51.968;5.918;2022-08-11T16:00:56;711.15;;;659.58;;
22768;SDS011;13001;51.968;5.918;2022-08-11T16:03:48;723.67;;;671.87;;
22768;SDS011;13001;51.968;5.918;2022-08-11T16:06:29;709.13;;;657.95;;
22768;SDS011;13001;51.968;5.918;2022-08-11T16:08:57;695.60;;;645.47;;
22768;SDS011;13001;51.968;5.918;2022-08-11T16:11:27;738.00;;;684.45;;
22768;SDS011;13001;51.968;5.918;2022-08-11T16:13:54;688.67;;;638.95;;
22768;SDS011;13001;51.968;5.918;2022-08-11T16:16:40;763.27;;;706.87;;
22768;SDS011;13001;51.968;5.918;2022-08-11T16:19:08;733.58;;;679.92;;
22768;SDS011;13001;51.968;5.918;2022-08-11T16:21:37;744.13;;;689.50;;
22768;SDS011;13001;51.968;5.918;2022-08-11T16:24:06;771.13;;;713.33;;
22768;SDS011;13001;51.968;5.918;2022-08-11T16:26:34;717.70;;;664.80;;
22768;SDS011;13001;51.968;5.918;2022-08-11T16:29:03;747.63;;;692.40;;
22768;SDS011;13001;51.968;5.918;2022-08-11T16:31:33;729.70;;;676.13;;
22768;SDS011;13001;51.968;5.918;2022-08-11T16:34:01;769.80;;;712.62;;
22768;SDS011;13001;51.968;5.918;2022-08-11T16:36:29;775.80;;;717.95;;
22768;SDS011;13001;51.968;5.918;2022-08-11T16:39:15;767.95;;;711.50;;
22768;SDS011;13001;51.968;5.918;2022-08-11T16:41:43;784.33;;;725.45;;
22768;SDS011;13001;51.968;5.918;2022-08-11T16:44:29;715.62;;;662.70;;
22768;SDS011;13001;51.968;5.918;2022-08-11T16:47:16;782.83;;;724.83;;
22768;SDS011;13001;51.968;5.918;2022-08-11T16:49:48;764.08;;;707.73;;
22768;SDS011;13001;51.968;5.918;2022-08-11T16:52:13;787.77;;;729.12;;
22768;SDS011;13001;51.968;5.918;2022-08-11T16:54:41;769.93;;;712.73;;
22768;SDS011;13001;51.968;5.918;2022-08-11T16:57:12;766.35;;;709.13;;
22768;SDS011;13001;51.968;5.918;2022-08-11T16:59:58;788.37;;;729.57;;
22768;SDS011;13001;51.968;5.918;2022-08-11T17:02:29;788.65;;;729.83;;
22768;SDS011;13001;51.968;5.918;2022-08-11T17:05:18;782.35;;;723.50;;
22768;SDS011;13001;51.968;5.918;2022-08-11T17:08:01;793.07;;;733.77;;
22768;SDS011;13001;51.968;5.918;2022-08-11T17:10:50;784.75;;;726.25;;
22768;SDS011;13001;51.968;5.918;2022-08-11T17:13:45;787.47;;;729.27;;
22768;SDS011;13001;51.968;5.918;2022-08-11T17:16:09;783.83;;;724.90;;
22768;SDS011;13001;51.968;5.918;2022-08-11T17:18:43;789.42;;;730.75;;
22768;SDS011;13001;51.968;5.918;2022-08-11T17:21:06;784.63;;;726.43;;
22768;SDS011;13001;51.968;5.918;2022-08-11T17:23:36;780.90;;;722.97;;
22768;SDS011;13001;51.968;5.918;2022-08-11T17:26:15;783.17;;;725.20;;
22768;SDS011;13001;51.968;5.918;2022-08-11T17:28:44;795.83;;;736.10;;
22768;SDS011;13001;51.968;5.918;2022-08-11T17:31:12;784.57;;;726.40;;
22768;SDS011;13001;51.968;5.918;2022-08-11T17:33:58;773.62;;;716.05;;
22768;SDS011;13001;51.968;5.918;2022-08-11T17:36:45;779.75;;;722.30;;
22768;SDS011;13001;51.968;5.918;2022-08-11T17:39:14;796.55;;;736.90;;
22768;SDS011;13001;51.968;5.918;2022-08-11T17:41:41;787.48;;;728.52;;
22768;SDS011;13001;51.968;5.918;2022-08-11T17:44:28;786.62;;;728.27;;
22768;SDS011;13001;51.968;5.918;2022-08-11T17:47:14;778.35;;;721.00;;
22768;SDS011;13001;51.968;5.918;2022-08-11T17:50:01;806.65;;;746.22;;
22768;SDS011;13001;51.968;5.918;2022-08-11T17:52:29;848.62;;;784.03;;
22768;SDS011;13001;51.968;5.918;2022-08-11T17:55:14;850.88;;;786.45;;
22768;SDS011;13001;51.968;5.918;2022-08-11T17:57:52;834.88;;;771.77;;
22768;SDS011;13001;51.968;5.918;2022-08-11T18:00:39;876.07;;;808.33;;
22768;SDS011;13001;51.968;5.918;2022-08-11T18:03:06;823.00;;;760.95;;
22768;SDS011;13001;51.968;5.918;2022-08-11T18:05:53;855.15;;;789.87;;
22768;SDS011;13001;51.968;5.918;2022-08-11T18:08:21;848.40;;;784.13;;
22768;SDS011;13001;51.968;5.918;2022-08-11T18:11:07;857.02;;;792.20;;
22768;SDS011;13001;51.968;5.918;2022-08-11T18:13:54;860.02;;;794.37;;
22768;SDS011;13001;51.968;5.918;2022-08-11T18:16:39;844.63;;;780.52;;
22768;SDS011;13001;51.968;5.918;2022-08-11T18:19:24;869.37;;;803.47;;
22768;SDS011;13001;51.968;5.918;2022-08-11T18:22:21;831.20;;;768.75;;
22768;SDS011;13001;51.968;5.918;2022-08-11T18:25:08;888.57;;;820.52;;
22768;SDS011;13001;51.968;5.918;2022-08-11T18:27:49;894.73;;;826.07;;
22768;SDS011;13001;51.968;5.918;2022-08-11T18:30:37;858.00;;;792.83;;
22768;SDS011;13001;51.968;5.918;2022-08-11T18:33:23;874.75;;;808.00;;
22768;SDS011;13001;51.968;5.918;2022-08-11T18:36:09;866.13;;;799.98;;
22768;SDS011;13001;51.968;5.918;2022-08-11T18:38:56;889.75;;;822.33;;